Time;durP1;ratioP1;P1;durP2;ratioP2;P2;SDS_P1;SDS_P2;PMS_P1;PMS_P2;Temp;Humidity;BMP_temperature;BMP_pressure;BME280_temperature;BME280_humidity;BME280_pressure;Samples;Min_cycle;Max_cycle;Signal;HPM_P1;HPM_P2
2023/06/13 00:35:57;437630.00;1.46;754.51;0.00;0.00;0.62;;;;;20.20;1.00;;;;;;2286575;60;1358;-91
2023/06/13 02:35:46;987533.00;3.29;1710.40;190862.00;0.64;330.19;;;;;20.20;1.00;;;;;;2282079;61;1326;-89
2023/06/13 03:05:36;551610.00;1.84;950.73;0.00;0.00;0.62;;;;;19.80;1.00;;;;;;2282689;61;1281;-89
2023/06/13 03:18:00;499985.00;1.67;861.80;0.00;0.00;0.62;;;;;18.70;1.00;;;;;;2282387;61;975;-90
2023/06/13 03:20:27;151074.00;0.50;261.66;0.00;0.00;0.62;;;;;18.20;1.00;;;;;;2280628;61;411;-94
2023/06/13 03:25:31;725812.00;2.42;1252.03;0.00;0.00;0.62;;;;;17.50;1.00;;;;;;2282004;61;1330;-91
2023/06/13 03:30:29;986448.00;3.29;1708.48;66183.00;0.22;115.16;;;;;17.70;1.00;;;;;;2478548;55;3604;31
2023/06/13 03:35:25;426705.00;1.42;735.72;0.00;0.00;0.62;;;;;18.40;1.00;;;;;;2511101;55;3611;31
2023/06/13 03:40:21;448725.00;1.50;773.59;0.00;0.00;0.62;;;;;18.50;1.00;;;;;;2516840;55;3588;31
2023/06/13 05:52:21;502545.00;1.68;866.21;0.00;0.00;0.62;;;;;29.10;1.00;;;;;;2282678;61;1050;-92
2023/06/13 06:02:16;690408.00;2.30;1190.61;183519.00;0.61;317.55;;;;;31.30;1.00;;;;;;2282837;61;1006;-90
2023/06/13 06:15:01;665491.00;2.22;1147.45;82983.00;0.28;144.19;;;;;31.90;1.00;;;;;;2519255;39;3599;31
2023/06/13 07:39:39;168279.00;0.56;291.30;0.00;0.00;0.62;;;;;31.40;1.00;;;;;;2390299;40;3492;-90
2023/06/13 10:43:11;862983.00;2.88;1491.20;77535.00;0.26;134.78;;;;;25.90;1.00;;;;;;2525090;39;3417;31
2023/06/13 14:01:11;698408.00;2.33;1204.48;144855.00;0.48;250.94;;;;;26.20;1.00;;;;;;806449;41;3517;-88
2023/06/13 14:11:08;592785.00;1.98;1021.76;21511.00;0.07;37.89;;;;;26.50;1.00;;;;;;2325128;39;3554;-89
2023/06/13 14:13:35;1414915.00;4.72;2484.01;63225.00;0.21;110.05;;;;;27.00;1.00;;;;;;1588315;56;3706;-88
2023/06/13 14:16:03;697682.00;2.33;1203.22;4191.00;0.01;7.88;;;;;27.10;1.00;;;;;;2379656;40;3937;-88
2023/06/13 14:31:16;471579.00;1.57;812.91;0.00;0.00;0.62;;;;;27.10;1.00;;;;;;2401263;39;3663;-89
2023/06/13 14:48:45;683546.00;2.28;1178.72;0.00;0.00;0.62;;;;;26.60;1.00;;;;;;1973451;56;3553;-87
2023/06/13 15:54:03;605727.00;2.02;1044.11;86105.00;0.29;149.58;;;;;26.60;1.00;;;;;;2282638;55;3642;-89
2023/06/13 16:16:26;742406.00;2.47;1280.86;77964.00;0.26;135.52;;;;;26.70;1.00;;;;;;2262234;61;1367;-88
2023/06/13 16:57:07;317042.00;1.06;547.21;0.00;0.00;0.62;;;;;25.90;1.00;;;;;;2507294;40;3608;31
2023/06/13 18:04:42;953931.00;3.18;1651.04;138955.00;0.46;240.77;;;;;25.50;1.00;;;;;;2262370;61;1096;-90
2023/06/13 18:17:13;289613.00;0.97;500.06;23948.00;0.08;42.11;;;;;25.60;1.00;;;;;;2264802;61;1367;-85
2023/06/13 18:19:42;177808.00;0.59;307.71;0.00;0.00;0.62;;;;;25.50;1.00;;;;;;2260441;61;1236;-84
2023/06/13 18:22:08;235154.00;0.78;406.42;0.00;0.00;0.62;;;;;25.50;1.00;;;;;;2260486;61;1027;-85
2023/06/13 18:24:37;220279.00;0.73;380.82;0.00;0.00;0.62;;;;;25.50;1.00;;;;;;2260711;61;1178;-84
2023/06/13 18:27:07;304694.00;1.02;525.99;44526.00;0.15;77.72;;;;;25.50;1.00;;;;;;2261406;61;2247;-84
2023/06/13 18:29:34;174505.00;0.58;302.03;0.00;0.00;0.62;;;;;25.40;1.00;;;;;;2261818;61;2006;-83
2023/06/13 18:32:02;200418.00;0.67;346.64;13644.00;0.05;24.26;;;;;25.20;1.00;;;;;;2262014;61;1099;-84
2023/06/13 18:34:29;83424.00;0.28;144.95;0.00;0.00;0.62;;;;;25.10;1.00;;;;;;2261714;61;1082;-85
2023/06/13 18:36:58;185670.00;0.62;321.25;0.00;0.00;0.62;;;;;24.90;1.00;;;;;;2261628;61;1286;-85
2023/06/13 18:39:26;320106.00;1.07;552.48;0.00;0.00;0.62;;;;;24.70;1.00;;;;;;2262300;61;1131;-85
2023/06/13 18:41:53;117403.00;0.39;203.60;6269.00;0.02;11.48;;;;;25.00;1.00;;;;;;2261730;61;1778;-85
2023/06/13 18:44:20;93984.00;0.31;163.19;0.00;0.00;0.62;;;;;24.80;1.00;;;;;;2263170;61;1597;-85
2023/06/13 18:46:47;177274.00;0.59;306.80;23713.00;0.08;41.70;;;;;24.90;1.00;;;;;;2263144;61;1326;-85
2023/06/13 18:49:13;64105.00;0.21;111.57;0.00;0.00;0.62;;;;;25.00;1.00;;;;;;2262564;61;1993;-84
2023/06/13 18:51:41;222657.00;0.74;384.92;38158.00;0.13;66.70;;;;;25.20;1.00;;;;;;2263368;61;1169;-84
2023/06/13 18:54:09;124657.00;0.42;216.11;0.00;0.00;0.62;;;;;24.90;1.00;;;;;;2263049;61;1116;-84
2023/06/13 18:56:36;167658.00;0.56;290.23;0.00;0.00;0.62;;;;;24.90;1.00;;;;;;2262125;61;1241;-84
2023/06/13 18:59:03;104254.00;0.35;180.91;0.00;0.00;0.62;;;;;25.00;1.00;;;;;;2261961;61;1198;-84
2023/06/13 19:01:33;361572.00;1.21;623.75;0.00;0.00;0.62;;;;;25.10;1.00;;;;;;2262547;61;1052;-84
2023/06/13 19:04:00;257767.00;0.86;445.31;0.00;0.00;0.62;;;;;25.00;1.00;;;;;;2262864;61;1181;-85
2023/06/13 19:06:27;327831.00;1.09;565.76;28543.00;0.10;50.06;;;;;24.90;1.00;;;;;;2262984;61;1391;-84
2023/06/13 19:08:53;410215.00;1.37;707.37;23664.00;0.08;41.61;;;;;25.00;1.00;;;;;;2262444;61;1142;-85
2023/06/13 19:11:22;248039.00;0.83;428.58;0.00;0.00;0.62;;;;;25.10;1.00;;;;;;2263661;61;2015;-85
2023/06/13 19:13:48;178993.00;0.60;309.76;0.00;0.00;0.62;;;;;24.80;1.00;;;;;;2262664;61;1178;-84
2023/06/13 19:16:15;244629.00;0.82;422.71;0.00;0.00;0.62;;;;;24.70;1.00;;;;;;2262580;61;1267;-84
2023/06/13 19:18:42;198432.00;0.66;343.22;0.00;0.00;0.62;;;;;24.70;1.00;;;;;;2261907;61;1279;-84
2023/06/13 19:21:10;222457.00;0.74;384.57;0.00;0.00;0.62;;;;;24.80;1.00;;;;;;2262652;61;1320;-83
2023/06/13 19:23:36;99239.00;0.33;172.26;0.00;0.00;0.62;;;;;25.00;1.00;;;;;;2263237;61;1145;-84
2023/06/13 19:26:03;234792.00;0.78;405.79;0.00;0.00;0.62;;;;;24.90;1.00;;;;;;2263294;61;1372;-83
2023/06/13 19:28:32;191686.00;0.64;331.61;0.00;0.00;0.62;;;;;24.80;1.00;;;;;;2262676;61;1739;-85
2023/06/13 19:31:00;216464.00;0.72;374.26;0.00;0.00;0.62;;;;;24.80;1.00;;;;;;2261632;61;1939;-84
2023/06/13 19:33:27;153147.00;0.51;265.23;0.00;0.00;0.62;;;;;25.00;1.00;;;;;;2261427;61;1130;-85
2023/06/13 19:35:58;129059.00;0.43;223.71;0.00;0.00;0.62;;;;;25.10;1.00;;;;;;2262367;61;1353;-85
2023/06/13 19:38:28;129514.00;0.43;224.49;0.00;0.00;0.62;;;;;25.20;1.00;;;;;;2262838;61;1098;-84
2023/06/13 19:40:55;198957.00;0.66;344.13;0.00;0.00;0.62;;;;;25.20;1.00;;;;;;2262134;61;1729;-85
2023/06/13 19:43:21;234017.00;0.78;404.46;0.00;0.00;0.62;;;;;25.30;1.00;;;;;;2262369;61;1150;-86
2023/06/13 19:45:51;237497.00;0.79;410.45;0.00;0.00;0.62;;;;;25.20;1.00;;;;;;2262546;61;1392;-85
2023/06/13 19:48:18;341735.00;1.14;589.66;0.00;0.00;0.62;;;;;25.10;1.00;;;;;;2263220;61;1154;-84
2023/06/13 19:50:47;198007.00;0.66;342.49;0.00;0.00;0.62;;;;;25.10;1.00;;;;;;2262637;61;1999;-84
2023/06/13 19:53:14;189403.00;0.63;327.68;18827.00;0.06;33.24;;;;;25.10;1.00;;;;;;2262946;61;1198;-83
2023/06/13 19:55:41;62205.00;0.21;108.29;0.00;0.00;0.62;;;;;24.70;1.00;;;;;;2263410;61;1382;-84
2023/06/13 19:58:08;519618.00;1.73;895.61;78642.00;0.26;136.69;;;;;24.50;1.00;;;;;;2262906;61;1583;-84
2023/06/13 20:00:35;330472.00;1.10;570.30;31185.00;0.10;54.63;;;;;24.30;1.00;;;;;;2262975;61;1223;-85
2023/06/13 20:03:04;388133.00;1.29;669.41;12545.00;0.04;22.36;;;;;24.30;1.00;;;;;;2263228;61;1102;-85
2023/06/13 20:05:31;108158.00;0.36;187.65;0.00;0.00;0.62;;;;;24.40;1.00;;;;;;2263247;61;1337;-84
2023/06/13 20:07:57;67668.00;0.23;117.73;0.00;0.00;0.62;;;;;24.30;1.00;;;;;;2263547;61;1558;-83
2023/06/13 20:10:25;76720.00;0.26;133.37;0.00;0.00;0.62;;;;;24.30;1.00;;;;;;2263299;61;1918;-85
2023/06/13 20:12:53;110837.00;0.37;192.27;0.00;0.00;0.62;;;;;24.30;1.00;;;;;;2263141;61;1204;-85
2023/06/13 20:15:20;196794.00;0.66;340.40;0.00;0.00;0.62;;;;;24.20;1.00;;;;;;2262496;61;1055;-85
2023/06/13 20:17:47;33602.00;0.11;58.82;0.00;0.00;0.62;;;;;24.10;1.00;;;;;;2262315;61;1286;-84
2023/06/13 20:20:16;230443.00;0.77;398.31;22534.00;0.08;39.66;;;;;24.00;1.00;;;;;;2262891;61;1735;-83
2023/06/13 20:22:45;0.00;0.00;0.62;0.00;0.00;0.62;;;;;23.80;1.00;;;;;;2263556;61;1253;-86
2023/06/13 20:25:12;13449.00;0.04;23.92;0.00;0.00;0.62;;;;;23.70;1.00;;;;;;2262951;61;1177;-85
2023/06/13 20:27:40;278111.00;0.93;480.29;0.00;0.00;0.62;;;;;23.70;1.00;;;;;;2262331;61;1318;-83
2023/06/13 20:30:08;186661.00;0.62;322.96;42661.00;0.14;74.49;;;;;23.40;1.00;;;;;;2262519;61;1996;-83
2023/06/13 20:32:35;47223.00;0.16;82.38;0.00;0.00;0.62;;;;;23.60;1.00;;;;;;2262603;61;1186;-85
2023/06/13 20:35:03;72088.00;0.24;125.37;0.00;0.00;0.62;;;;;23.40;1.00;;;;;;2262538;61;1324;-85
2023/06/13 20:37:31;74473.00;0.25;129.49;0.00;0.00;0.62;;;;;23.30;1.00;;;;;;2262380;61;1235;-83
2023/06/13 20:40:00;13935.00;0.05;24.77;0.00;0.00;0.62;;;;;23.30;1.00;;;;;;2262728;61;1130;-85
2023/06/13 20:42:30;21660.00;0.07;38.14;0.00;0.00;0.62;;;;;23.20;1.00;;;;;;2262498;61;1048;-84
2023/06/13 20:44:58;0.00;0.00;0.62;0.00;0.00;0.62;;;;;23.10;1.00;;;;;;2260618;61;1176;-84
2023/06/13 20:47:25;155582.00;0.52;269.43;54493.00;0.18;94.96;;;;;22.80;1.00;;;;;;2260346;61;1373;-85
2023/06/13 20:49:55;39276.00;0.13;68.64;0.00;0.00;0.62;;;;;22.50;1.00;;;;;;2259987;61;2000;-87
2023/06/13 20:52:22;119554128.00;398.51;69221920.00;0.00;0.00;0.62;;;;;22.50;1.00;;;;;;2259321;61;1515;-84
2023/06/13 20:54:50;136697.00;0.46;236.88;0.00;0.00;0.62;;;;;22.30;1.00;;;;;;2259498;61;1173;-84
2023/06/13 20:57:17;407619.00;1.36;702.90;28244.00;0.09;49.54;;;;;22.40;1.00;;;;;;2259585;61;1274;-84
2023/06/13 20:59:44;246750.00;0.82;426.36;0.00;0.00;0.62;;;;;22.40;1.00;;;;;;2259341;61;1095;-83
2023/06/13 21:02:11;157096.00;0.52;272.04;14606.00;0.05;25.93;;;;;22.40;1.00;;;;;;2259188;61;1146;-85
2023/06/13 21:04:38;276855.00;0.92;478.13;0.00;0.00;0.62;;;;;22.30;1.00;;;;;;2259148;61;1129;-84
2023/06/13 21:07:05;347840.00;1.16;600.15;37161.00;0.12;64.98;;;;;22.30;1.00;;;;;;2259251;61;1360;-84
2023/06/13 21:09:32;139560.00;0.47;241.81;0.00;0.00;0.62;;;;;22.10;1.00;;;;;;2259596;61;1102;-84
2023/06/13 21:12:01;217646.00;0.73;376.29;0.00;0.00;0.62;;;;;22.10;1.00;;;;;;2260074;61;1936;-84
2023/06/13 21:14:27;146617.00;0.49;253.98;0.00;0.00;0.62;;;;;22.20;1.00;;;;;;2259501;61;1165;-85
2023/06/13 21:16:54;245359.00;0.82;423.97;0.00;0.00;0.62;;;;;22.40;1.00;;;;;;2259471;61;1609;-87
2023/06/13 21:19:21;354725.00;1.18;611.98;0.00;0.00;0.62;;;;;22.30;1.00;;;;;;2258796;61;1108;-86
2023/06/13 21:21:48;126747.00;0.42;219.72;0.00;0.00;0.62;;;;;22.20;1.00;;;;;;2261082;61;1136;-84
2023/06/13 21:24:15;277371.00;0.92;479.02;0.00;0.00;0.62;;;;;22.10;1.00;;;;;;2260809;61;1193;-83
2023/06/13 21:26:42;349898.00;1.17;603.69;26285.00;0.09;46.15;;;;;22.00;1.00;;;;;;2260677;61;1394;-84
2023/06/13 21:29:10;157637.00;0.53;272.97;0.00;0.00;0.62;;;;;21.90;1.00;;;;;;2262415;61;1134;-83
2023/06/13 21:31:37;286142.00;0.95;494.10;0.00;0.00;0.62;;;;;21.70;1.00;;;;;;2260006;61;2004;-83
2023/06/13 21:34:04;411381.00;1.37;709.37;0.00;0.00;0.62;;;;;21.70;1.00;;;;;;2259000;61;1162;-83
2023/06/13 21:36:31;209890.00;0.70;362.95;0.00;0.00;0.62;;;;;21.80;1.00;;;;;;2259223;61;1391;-83
2023/06/13 21:38:58;247075.00;0.82;426.92;0.00;0.00;0.62;;;;;21.60;1.00;;;;;;2259435;61;1064;-83
2023/06/13 21:41:25;400411.00;1.33;690.51;42651.00;0.14;74.47;;;;;21.40;1.00;;;;;;2259398;61;1241;-83
2023/06/13 21:43:51;352527.00;1.18;608.20;0.00;0.00;0.62;;;;;21.20;1.00;;;;;;2259228;61;1162;-83
2023/06/13 21:46:20;720233.00;2.40;1242.34;112808.00;0.38;195.68;;;;;21.10;1.00;;;;;;2258875;61;1380;-83
2023/06/13 21:48:47;211412.00;0.70;365.57;0.00;0.00;0.62;;;;;21.10;1.00;;;;;;2258778;61;1171;-83
2023/06/13 21:51:14;335152.00;1.12;578.34;34181.00;0.11;59.82;;;;;21.10;1.00;;;;;;2258942;61;1997;-83
2023/06/13 21:53:41;433007.00;1.44;746.56;67413.00;0.22;117.29;;;;;21.10;1.00;;;;;;2259733;61;1071;-84
2023/06/13 21:56:08;350365.00;1.17;604.49;45081.00;0.15;78.68;;;;;21.00;1.00;;;;;;2259372;61;1397;-83
2023/06/13 21:58:35;79078.00;0.26;137.44;0.00;0.00;0.62;;;;;21.00;1.00;;;;;;2259338;61;1098;-84
2023/06/13 22:01:02;236704.00;0.79;409.08;0.00;0.00;0.62;;;;;21.30;1.00;;;;;;2258878;61;1223;-82
2023/06/13 22:03:30;310008.00;1.03;535.12;3186.00;0.01;6.14;;;;;20.90;1.00;;;;;;2259305;61;1181;-83
2023/06/13 22:05:57;507266.00;1.69;874.33;37140.00;0.12;64.94;;;;;21.00;1.00;;;;;;2259467;61;1292;-82
2023/06/13 22:08:24;184660.00;0.62;319.51;0.00;0.00;0.62;;;;;20.80;1.00;;;;;;2259549;61;1179;-84
2023/06/13 22:10:51;160224.00;0.53;277.43;0.00;0.00;0.62;;;;;20.70;1.00;;;;;;2259218;61;1920;-84
2023/06/13 22:13:18;344302.00;1.15;594.07;39239.00;0.13;68.57;;;;;20.70;1.00;;;;;;2259673;61;1194;-84
2023/06/13 22:15:46;381959.00;1.27;658.79;0.00;0.00;0.62;;;;;20.60;1.00;;;;;;2259197;61;1642;-83
2023/06/13 22:18:14;157566.00;0.53;272.85;0.00;0.00;0.62;;;;;20.50;1.00;;;;;;2259506;61;1225;-83
2023/06/13 22:20:42;296390.00;0.99;511.71;24931.00;0.08;43.81;;;;;20.50;1.00;;;;;;2259095;61;1215;-83
2023/06/13 22:23:09;311540.00;1.04;537.76;0.00;0.00;0.62;;;;;20.60;1.00;;;;;;2259555;61;1147;-82
2023/06/13 22:25:36;217365.00;0.72;375.81;0.00;0.00;0.62;;;;;20.40;1.00;;;;;;2262845;61;1284;-83
2023/06/13 22:28:03;157886.00;0.53;273.40;0.00;0.00;0.62;;;;;20.30;1.00;;;;;;2260061;61;1111;-83
2023/06/13 22:30:30;204578.00;0.68;353.80;0.00;0.00;0.62;;;;;20.40;1.00;;;;;;2259916;61;2005;-83
2023/06/13 22:32:57;206080.00;0.69;356.39;0.00;0.00;0.62;;;;;20.40;1.00;;;;;;2260039;61;1099;-84
2023/06/13 22:35:24;261245.00;0.87;451.29;0.00;0.00;0.62;;;;;20.40;1.00;;;;;;2259227;61;1182;-84
2023/06/13 22:37:52;343403.00;1.14;592.52;60964.00;0.20;106.14;;;;;20.30;1.00;;;;;;2259687;61;1629;-83
2023/06/13 22:40:19;152408.00;0.51;263.96;0.00;0.00;0.62;;;;;20.00;1.00;;;;;;2259498;61;1125;-83
2023/06/13 22:42:46;198405.00;0.66;343.18;0.00;0.00;0.62;;;;;20.00;1.00;;;;;;2259331;61;1095;-83
2023/06/13 22:45:14;191795.00;0.64;331.80;0.00;0.00;0.62;;;;;19.90;1.00;;;;;;2258843;61;1172;-83
2023/06/13 22:47:41;292326.00;0.97;504.73;25069.00;0.08;44.05;;;;;19.90;1.00;;;;;;2259259;61;1443;-84
2023/06/13 22:50:09;188511.00;0.63;326.14;0.00;0.00;0.62;;;;;20.00;1.00;;;;;;2259224;61;1174;-83
2023/06/13 22:52:36;244053.00;0.81;421.72;0.00;0.00;0.62;;;;;19.90;1.00;;;;;;2259671;61;1936;-83
2023/06/13 22:55:05;311733.00;1.04;538.09;0.00;0.00;0.62;;;;;19.90;1.00;;;;;;2259759;61;1083;-83
2023/06/13 22:57:32;331031.00;1.10;571.26;0.00;0.00;0.62;;;;;19.80;1.00;;;;;;2260801;61;1296;-83
2023/06/13 22:59:59;307710.00;1.03;531.17;0.00;0.00;0.62;;;;;19.60;1.00;;;;;;2260742;61;1150;-83
2023/06/13 23:02:26;397498.00;1.32;685.50;99437.00;0.33;172.60;;;;;19.50;1.00;;;;;;2260423;61;1134;-83
2023/06/13 23:04:54;205438.00;0.68;355.28;0.00;0.00;0.62;;;;;19.30;1.00;;;;;;2260523;61;1150;-83
2023/06/13 23:07:21;404245.00;1.35;697.10;79778.00;0.27;138.65;;;;;19.30;1.00;;;;;;2260208;61;2129;-82
2023/06/13 23:09:48;389501.00;1.30;671.76;20642.00;0.07;36.38;;;;;19.20;1.00;;;;;;2260224;61;1188;-82
2023/06/13 23:12:16;297282.00;0.99;513.25;0.00;0.00;0.62;;;;;19.20;1.00;;;;;;2259844;61;1923;-83
2023/06/13 23:14:43;491018.00;1.64;846.36;80431.00;0.27;139.78;;;;;19.20;1.00;;;;;;2260722;61;1168;-83
2023/06/13 23:17:14;422240.00;1.41;728.04;36686.00;0.12;64.15;;;;;19.10;1.00;;;;;;2261012;61;1395;-83
2023/06/13 23:19:53;166874.00;0.56;288.88;0.00;0.00;0.62;;;;;19.10;1.00;;;;;;2260770;61;1146;-83
2023/06/13 23:22:20;43044.00;0.14;75.15;0.00;0.00;0.62;;;;;19.00;1.00;;;;;;2261082;61;1123;-83
2023/06/13 23:24:47;170223.00;0.57;294.65;0.00;0.00;0.62;;;;;19.00;1.00;;;;;;2260994;61;1082;-83
2023/06/13 23:27:16;108333.00;0.36;187.95;0.00;0.00;0.62;;;;;19.00;1.00;;;;;;2261009;61;1282;-82
2023/06/13 23:29:47;388241.00;1.29;669.59;35414.00;0.12;61.95;;;;;18.80;1.00;;;;;;2261173;61;1090;-82
2023/06/13 23:32:14;89265.00;0.30;155.04;0.00;0.00;0.62;;;;;18.70;1.00;;;;;;2262595;61;1990;-86
2023/06/13 23:34:44;101932.00;0.34;176.91;0.00;0.00;0.62;;;;;18.90;1.00;;;;;;2263985;61;1007;-85
2023/06/13 23:37:11;223384.00;0.74;386.17;0.00;0.00;0.62;;;;;18.90;1.00;;;;;;2260758;61;1403;-82
2023/06/13 23:39:44;148826.00;0.50;257.78;0.00;0.00;0.62;;;;;18.90;1.00;;;;;;2260147;61;1067;-81
2023/06/13 23:42:12;288757.00;0.96;498.59;46609.00;0.16;81.32;;;;;19.00;1.00;;;;;;2260849;61;1123;-81
2023/06/13 23:44:38;125055.00;0.42;216.80;20311.00;0.07;35.81;;;;;18.90;1.00;;;;;;2261063;61;1146;-82
2023/06/13 23:47:07;64618.00;0.22;112.46;0.00;0.00;0.62;;;;;18.70;1.00;;;;;;2260901;61;1269;-82
2023/06/13 23:49:34;65273.00;0.22;113.59;0.00;0.00;0.62;;;;;18.50;1.00;;;;;;2260913;61;1138;-83
2023/06/13 23:52:01;123895.00;0.41;214.80;18827.00;0.06;33.24;;;;;18.40;1.00;;;;;;2260543;61;1924;-83
2023/06/13 23:54:28;0.00;0.00;0.62;0.00;0.00;0.62;;;;;18.50;1.00;;;;;;2260379;61;1114;-83
2023/06/13 23:56:55;115701.00;0.39;200.67;0.00;0.00;0.62;;;;;18.30;1.00;;;;;;2260111;61;1254;-82
2023/06/13 23:59:21;21123.00;0.07;37.21;0.00;0.00;0.62;;;;;18.30;1.00;;;;;;2261630;61;1158;-80
